createdAt,value
2018-05-07T00:02:10.793Z,13.10
2018-05-07T00:04:39.045Z,13.10
2018-05-07T00:07:09.194Z,13.20
2018-05-07T00:09:38.817Z,13.10
2018-05-07T00:12:08.551Z,13.10
2018-05-07T00:14:36.801Z,13.10
2018-05-07T00:17:06.086Z,13.10
2018-05-07T00:19:34.324Z,13.10
2018-05-07T00:22:03.376Z,13.10
2018-05-07T00:24:31.618Z,13.10
2018-05-07T00:27:01.126Z,13.00
2018-05-07T00:29:30.126Z,13.00
2018-05-07T00:31:58.995Z,13.00
2018-05-07T00:34:28.024Z,12.90
2018-05-07T00:36:56.282Z,12.90
2018-05-07T00:39:24.540Z,12.90
2018-05-07T00:41:53.560Z,12.90
2018-05-07T00:44:22.417Z,12.80
2018-05-07T00:46:51.450Z,12.80
2018-05-07T00:49:19.696Z,12.80
2018-05-07T00:51:48.719Z,12.70
2018-05-07T00:54:19.159Z,12.70
2018-05-07T00:56:48.073Z,12.70
2018-05-07T00:59:16.336Z,12.60
2018-05-07T01:01:44.590Z,12.60
2018-05-07T01:04:12.839Z,12.50
2018-05-07T01:06:41.864Z,12.50
2018-05-07T01:09:10.107Z,12.50
2018-05-07T01:11:39.030Z,12.50
2018-05-07T01:14:07.278Z,12.40
2018-05-07T01:16:36.255Z,12.50
2018-05-07T01:19:05.281Z,12.40
2018-05-07T01:21:34.049Z,12.40
2018-05-07T01:24:02.298Z,12.40
2018-05-07T01:26:30.557Z,12.40
2018-05-07T01:28:58.814Z,12.30
2018-05-07T01:31:27.287Z,12.30
2018-05-07T01:33:57.177Z,12.30
2018-05-07T01:36:25.417Z,12.30
2018-05-07T01:38:53.757Z,12.30
2018-05-07T01:41:22.994Z,12.20
2018-05-07T01:43:51.801Z,12.10
2018-05-07T01:46:20.815Z,12.10
2018-05-07T01:48:50.066Z,12.00
2018-05-07T01:51:18.312Z,12.00
2018-05-07T01:53:50.304Z,11.90
2018-05-07T01:56:18.548Z,11.90
2018-05-07T01:58:47.029Z,11.90
2018-05-07T02:01:15.278Z,11.80
2018-05-07T02:03:43.526Z,11.70
2018-05-07T02:06:11.776Z,11.80
2018-05-07T02:08:40.018Z,11.70
2018-05-07T02:11:10.751Z,11.60
2018-05-07T02:13:39.000Z,11.60
2018-05-07T02:16:12.566Z,11.60
2018-05-07T02:18:41.063Z,11.60
2018-05-07T02:21:09.309Z,11.60
2018-05-07T02:23:37.556Z,11.60
2018-05-07T02:26:06.985Z,11.60
2018-05-07T02:28:35.234Z,11.60
2018-05-07T02:31:03.495Z,11.60
2018-05-07T02:33:33.121Z,11.50
2018-05-07T02:36:01.371Z,11.50
2018-05-07T02:38:30.397Z,11.50
2018-05-07T02:40:58.632Z,11.40
2018-05-07T02:43:27.655Z,11.40
2018-05-07T02:45:55.903Z,11.40
2018-05-07T02:48:24.932Z,11.40
2018-05-07T02:50:54.736Z,11.30
2018-05-07T02:53:22.989Z,11.30
2018-05-07T02:55:52.094Z,11.30
2018-05-07T02:58:21.554Z,11.30
2018-05-07T03:00:49.802Z,11.30
2018-05-07T03:03:18.054Z,11.30
2018-05-07T03:05:46.309Z,11.20
2018-05-07T03:08:15.319Z,11.10
2018-05-07T03:10:43.578Z,11.10
2018-05-07T03:13:12.606Z,11.10
2018-05-07T03:15:40.848Z,11.10
2018-05-07T03:18:09.974Z,11.10
2018-05-07T03:20:38.219Z,11.10
2018-05-07T03:23:08.217Z,11.00
2018-05-07T03:25:37.030Z,11.00
2018-05-07T03:28:05.280Z,11.00
2018-05-07T03:30:33.540Z,11.00
2018-05-07T03:33:02.693Z,11.00
2018-05-07T03:35:30.939Z,10.90
2018-05-07T03:37:59.960Z,10.90
2018-05-07T03:40:28.294Z,10.80
2018-05-07T03:42:58.002Z,10.80
2018-05-07T03:45:26.235Z,10.80
2018-05-07T03:47:54.481Z,10.80
2018-05-07T03:50:24.486Z,10.70
2018-05-07T03:52:53.522Z,10.70
2018-05-07T03:55:22.926Z,10.60
2018-05-07T03:57:51.178Z,10.70
2018-05-07T04:00:19.416Z,10.70
2018-05-07T04:02:47.673Z,10.70
2018-05-07T04:05:16.748Z,10.70
2018-05-07T04:07:44.987Z,10.70
2018-05-07T04:10:13.233Z,10.70
2018-05-07T04:12:41.485Z,10.70
2018-05-07T04:15:09.734Z,10.70
2018-05-07T04:17:56.549Z,10.80
2018-05-07T04:20:45.532Z,10.80
2018-05-07T04:23:32.212Z,10.80
2018-05-07T04:26:01.177Z,10.90
2018-05-07T04:28:30.196Z,10.90
2018-05-07T04:30:58.449Z,10.90
2018-05-07T04:33:28.530Z,11.00
2018-05-07T04:35:56.771Z,10.90
2018-05-07T04:38:25.018Z,11.00
2018-05-07T04:40:54.021Z,11.10
2018-05-07T04:43:22.277Z,11.10
2018-05-07T04:45:51.289Z,11.10
2018-05-07T04:48:20.226Z,11.10
2018-05-07T04:50:50.704Z,11.10
2018-05-07T04:53:19.721Z,11.10
2018-05-07T04:55:47.973Z,11.10
2018-05-07T04:58:16.216Z,11.10
2018-05-07T05:00:45.644Z,11.10
2018-05-07T05:03:15.329Z,11.20
2018-05-07T05:05:43.583Z,11.20
2018-05-07T05:08:11.823Z,11.20
2018-05-07T05:10:40.081Z,11.20
2018-05-07T05:13:09.989Z,11.20
2018-05-07T05:15:39.000Z,11.30
2018-05-07T05:18:07.250Z,11.30
2018-05-07T05:20:36.264Z,11.40
2018-05-07T05:23:05.143Z,11.40
2018-05-07T05:25:34.179Z,11.50
2018-05-07T05:28:02.431Z,11.50
2018-05-07T05:30:30.690Z,11.50
2018-05-07T05:32:59.692Z,11.60
2018-05-07T05:35:27.949Z,11.60
2018-05-07T05:37:56.961Z,11.70
2018-05-07T05:40:25.213Z,11.70
2018-05-07T05:42:55.134Z,11.80
2018-05-07T05:45:24.147Z,11.90
2018-05-07T05:47:52.473Z,11.90
2018-05-07T05:50:21.245Z,11.90
2018-05-07T05:52:50.050Z,12.00
2018-05-07T05:55:18.960Z,12.00
2018-05-07T05:57:48.414Z,12.10
2018-05-07T06:00:16.662Z,12.20
2018-05-07T06:02:45.672Z,12.30
2018-05-07T06:05:14.451Z,12.30
2018-05-07T06:07:43.271Z,12.30
2018-05-07T06:10:13.398Z,12.30
2018-05-07T06:12:43.149Z,12.40
2018-05-07T06:15:11.376Z,12.40
2018-05-07T06:17:44.303Z,12.50
2018-05-07T06:20:12.553Z,12.50
2018-05-07T06:22:40.799Z,12.60
2018-05-07T06:25:09.049Z,12.70
2018-05-07T06:27:38.877Z,12.80
2018-05-07T06:30:07.123Z,12.90
2018-05-07T06:32:36.139Z,13.10
2018-05-07T06:35:04.388Z,13.00
2018-05-07T06:37:34.085Z,13.30
2018-05-07T06:40:02.333Z,13.30
2018-05-07T06:42:30.585Z,13.30
2018-05-07T06:44:58.848Z,13.50
2018-05-07T06:47:27.101Z,13.60
2018-05-07T06:49:56.121Z,13.80
2018-05-07T06:52:24.373Z,13.70
2018-05-07T06:54:53.395Z,14.00
2018-05-07T06:57:22.664Z,14.00
2018-05-07T06:59:51.691Z,14.20
2018-05-07T07:02:19.969Z,14.20
2018-05-07T07:04:48.218Z,14.20
2018-05-07T07:07:17.234Z,14.50
2018-05-07T07:09:45.490Z,14.50
2018-05-07T07:12:14.504Z,14.70
2018-05-07T07:14:43.692Z,14.70
2018-05-07T07:17:11.942Z,14.80
2018-05-07T07:19:40.961Z,15.00
2018-05-07T07:22:09.205Z,15.00
2018-05-07T07:24:37.460Z,15.20
2018-05-07T07:27:06.789Z,15.30
2018-05-07T07:29:35.029Z,15.40
2018-05-07T07:32:03.295Z,15.60
2018-05-07T07:34:31.542Z,15.60
2018-05-07T07:36:59.789Z,15.70
2018-05-07T07:39:28.837Z,15.70
2018-05-07T07:41:57.834Z,15.80
2018-05-07T07:44:26.086Z,15.80
2018-05-07T07:46:54.345Z,16.00
2018-05-07T07:49:23.643Z,16.10
2018-05-07T07:51:52.653Z,16.20
2018-05-07T07:54:20.897Z,16.10
2018-05-07T07:56:49.908Z,16.30
2018-05-07T07:59:18.186Z,16.30
2018-05-07T08:01:46.408Z,16.30
2018-05-07T08:04:15.293Z,16.40
2018-05-07T08:06:44.185Z,16.50
2018-05-07T08:09:12.429Z,16.60
2018-05-07T08:11:40.777Z,16.50
2018-05-07T08:14:09.777Z,16.80
2018-05-07T08:16:38.792Z,16.90
2018-05-07T08:19:07.578Z,16.80
2018-05-07T08:21:35.827Z,16.90
2018-05-07T08:24:05.898Z,17.10
2018-05-07T08:26:35.074Z,17.10
2018-05-07T08:29:03.325Z,17.20
2018-05-07T08:31:33.414Z,17.30
2018-05-07T08:34:02.505Z,17.30
2018-05-07T08:36:32.323Z,17.40
2018-05-07T08:39:01.423Z,17.40
2018-05-07T08:41:30.489Z,17.50
2018-05-07T08:43:58.732Z,17.70
2018-05-07T08:46:27.005Z,17.70
2018-05-07T08:48:56.258Z,17.80
2018-05-07T08:51:25.541Z,17.70
2018-05-07T08:53:54.009Z,17.80
2018-05-07T08:56:22.262Z,18.00
2018-05-07T08:58:51.380Z,18.30
2018-05-07T09:01:19.664Z,18.40
2018-05-07T09:03:48.103Z,18.60
2018-05-07T09:06:16.346Z,18.50
2018-05-07T09:08:44.592Z,18.80
2018-05-07T09:11:12.835Z,19.00
2018-05-07T09:13:41.110Z,19.20
2018-05-07T09:16:10.130Z,19.50
2018-05-07T09:18:38.376Z,19.50
2018-05-07T09:21:06.644Z,19.80
2018-05-07T09:23:35.108Z,19.90
2018-05-07T09:26:03.343Z,20.10
2018-05-07T09:28:31.604Z,19.80
2018-05-07T09:31:03.579Z,19.80
2018-05-07T09:33:31.851Z,19.90
2018-05-07T09:36:00.220Z,20.00
2018-05-07T09:38:28.456Z,20.20
2018-05-07T09:40:57.472Z,20.20
2018-05-07T09:43:25.731Z,20.10
2018-05-07T09:45:54.740Z,20.50
2018-05-07T09:48:24.148Z,20.50
2018-05-07T09:50:52.897Z,20.60
2018-05-07T09:53:21.680Z,20.50
2018-05-07T09:55:50.475Z,20.50
2018-05-07T09:58:19.481Z,20.80
2018-05-07T10:00:48.504Z,20.80
2018-05-07T10:03:16.756Z,20.80
2018-05-07T10:05:45.687Z,21.20
2018-05-07T10:08:14.975Z,21.50
2018-05-07T10:10:44.319Z,21.40
2018-05-07T10:13:13.329Z,21.40
2018-05-07T10:15:43.282Z,21.40
2018-05-07T10:18:12.077Z,21.40
2018-05-07T10:20:40.326Z,21.20
2018-05-07T10:23:08.577Z,21.30
2018-05-07T10:25:37.595Z,21.70
2018-05-07T10:28:05.857Z,21.60
2018-05-07T10:30:35.690Z,21.80
2018-05-07T10:33:03.938Z,21.70
2018-05-07T10:35:32.969Z,21.60
2018-05-07T10:38:01.226Z,21.60
2018-05-07T10:40:30.656Z,21.50
2018-05-07T10:42:58.909Z,21.40
2018-05-07T10:45:27.159Z,21.40
2018-05-07T10:47:56.186Z,21.30
2018-05-07T10:50:25.006Z,21.20
2018-05-07T10:52:53.264Z,21.50
2018-05-07T10:55:21.528Z,21.60
2018-05-07T10:57:49.781Z,21.60
2018-05-07T11:00:18.797Z,21.80
2018-05-07T11:02:47.596Z,21.80
2018-05-07T11:05:16.065Z,22.40
2018-05-07T11:07:44.313Z,23.10
2018-05-07T11:10:13.326Z,23.50
2018-05-07T11:12:41.855Z,23.50
2018-05-07T11:15:10.098Z,23.50
2018-05-07T11:17:39.430Z,23.30
2018-05-07T11:20:07.673Z,23.60
2018-05-07T11:22:35.940Z,23.70
2018-05-07T11:25:04.180Z,23.80
2018-05-07T11:27:34.221Z,23.70
2018-05-07T11:30:02.473Z,23.70
2018-05-07T11:32:31.485Z,24.00
2018-05-07T11:34:59.741Z,24.00
2018-05-07T11:37:28.761Z,24.80
2018-05-07T11:39:57.007Z,24.80
2018-05-07T11:42:27.211Z,25.10
2018-05-07T11:44:56.244Z,25.10
2018-05-07T11:47:24.535Z,24.70
2018-05-07T11:49:52.733Z,24.80
2018-05-07T11:52:20.975Z,25.20
2018-05-07T11:54:49.225Z,25.30
2018-05-07T11:57:18.228Z,25.50
2018-05-07T11:59:47.008Z,25.50
2018-05-07T12:02:16.568Z,25.40
2018-05-07T12:04:44.825Z,25.40
2018-05-07T12:07:13.071Z,26.00
2018-05-07T12:09:42.792Z,25.80
2018-05-07T12:12:11.040Z,25.90
2018-05-07T12:14:43.769Z,26.00
2018-05-07T12:17:12.018Z,26.00
2018-05-07T12:19:40.256Z,25.90
2018-05-07T12:22:08.518Z,25.90
2018-05-07T12:24:36.866Z,26.20
2018-05-07T12:27:05.116Z,26.00
2018-05-07T12:29:33.933Z,26.00
2018-05-07T12:32:02.178Z,26.30
2018-05-07T12:34:31.187Z,26.80
2018-05-07T12:36:59.436Z,26.70
2018-05-07T12:39:29.060Z,26.30
2018-05-07T12:41:57.313Z,26.30
2018-05-07T12:44:25.566Z,26.20
2018-05-07T12:46:53.907Z,25.70
2018-05-07T12:49:22.280Z,26.30
2018-05-07T12:51:51.138Z,26.30
2018-05-07T12:54:20.147Z,26.60
2018-05-07T12:56:52.220Z,27.60
2018-05-07T12:59:20.714Z,27.50
2018-05-07T13:01:49.267Z,27.60
2018-05-07T13:04:17.760Z,27.30
2018-05-07T13:06:46.186Z,27.40
2018-05-07T13:09:15.207Z,26.80
2018-05-07T13:11:45.012Z,27.00
2018-05-07T13:14:14.054Z,27.20
2018-05-07T13:16:46.072Z,27.20
2018-05-07T13:19:15.011Z,27.40
2018-05-07T13:21:43.260Z,27.60
2018-05-07T13:24:12.280Z,28.30
2018-05-07T13:26:42.563Z,28.20
2018-05-07T13:29:11.584Z,27.60
2018-05-07T13:31:39.832Z,27.60
2018-05-07T13:34:08.849Z,28.10
2018-05-07T13:36:37.097Z,28.10
2018-05-07T13:39:07.037Z,28.10
2018-05-07T13:41:35.915Z,28.30
2018-05-07T13:44:04.922Z,27.80
2018-05-07T13:46:33.170Z,27.80
2018-05-07T13:49:01.422Z,28.20
2018-05-07T13:51:30.273Z,28.10
2018-05-07T13:53:58.520Z,28.20
2018-05-07T13:56:27.540Z,27.90
2018-05-07T13:58:55.784Z,27.80
2018-05-07T14:01:25.399Z,28.90
2018-05-07T14:03:55.477Z,28.20
2018-05-07T14:06:24.503Z,28.10
2018-05-07T14:08:53.525Z,28.50
2018-05-07T14:11:21.777Z,28.50
2018-05-07T14:13:50.794Z,28.50
2018-05-07T14:16:19.673Z,28.50
2018-05-07T14:18:49.414Z,29.10
2018-05-07T14:21:18.850Z,29.10
2018-05-07T14:23:47.084Z,29.00
2018-05-07T14:26:15.374Z,28.50
2018-05-07T14:28:44.351Z,29.00
2018-05-07T14:31:12.597Z,29.00
2018-05-07T14:33:42.162Z,28.50
2018-05-07T14:36:11.921Z,28.50
2018-05-07T14:38:40.998Z,29.00
2018-05-07T14:41:09.180Z,29.00
2018-05-07T14:43:39.136Z,29.70
2018-05-07T14:46:07.421Z,29.70
2018-05-07T14:48:35.678Z,29.80
2018-05-07T14:51:05.809Z,29.00
2018-05-07T14:56:06.981Z,28.50
2018-05-07T14:58:36.285Z,29.30
2018-05-07T15:01:04.494Z,29.50
2018-05-07T15:03:33.509Z,28.90
2018-05-07T15:06:01.857Z,28.80
2018-05-07T15:08:30.718Z,28.90
2018-05-07T15:10:59.801Z,28.40
2018-05-07T15:13:29.570Z,28.60
2018-05-07T15:15:58.797Z,29.30
2018-05-07T15:18:27.037Z,29.30
2018-05-07T15:20:57.175Z,28.70
2018-05-07T15:23:25.433Z,28.70
2018-05-07T15:25:55.061Z,29.50
2018-05-07T15:28:23.309Z,29.50
2018-05-07T15:30:51.557Z,29.20
2018-05-07T15:33:19.800Z,29.60
2018-05-07T15:35:48.682Z,30.30
2018-05-07T15:38:18.091Z,29.90
2018-05-07T15:40:46.336Z,29.40
2018-05-07T15:43:15.568Z,29.10
2018-05-07T15:45:43.904Z,29.00
2018-05-07T15:48:12.147Z,29.10
2018-05-07T15:50:40.400Z,28.90
2018-05-07T15:53:08.765Z,28.80
2018-05-07T15:55:37.010Z,28.70
2018-05-07T15:58:06.851Z,29.60
2018-05-07T16:00:35.118Z,29.60
2018-05-07T16:03:03.488Z,29.30
2018-05-07T16:05:32.385Z,28.80
2018-05-07T16:08:03.283Z,29.50
2018-05-07T16:10:32.629Z,29.50
2018-05-07T16:13:01.104Z,29.20
2018-05-07T16:15:30.127Z,29.40
2018-05-07T16:17:58.381Z,29.40
2018-05-07T16:20:29.276Z,29.90
2018-05-07T16:22:57.509Z,29.90
2018-05-07T16:25:25.754Z,30.70
2018-05-07T16:27:54.765Z,29.70
2018-05-07T16:30:23.522Z,29.60
2018-05-07T16:32:51.766Z,30.10
2018-05-07T16:35:20.010Z,29.30
2018-05-07T16:37:51.597Z,29.50
2018-05-07T16:40:19.859Z,29.30
2018-05-07T16:42:48.853Z,29.60
2018-05-07T16:45:17.813Z,30.10
2018-05-07T16:47:46.083Z,30.00
2018-05-07T16:50:14.331Z,29.30
2018-05-07T16:52:43.348Z,29.40
2018-05-07T16:55:12.505Z,29.30
2018-05-07T16:57:40.766Z,29.70
2018-05-07T17:00:09.009Z,29.60
2018-05-07T17:02:37.270Z,29.40
2018-05-07T17:05:06.282Z,29.20
2018-05-07T17:07:34.531Z,29.10
2018-05-07T17:10:04.260Z,29.10
2018-05-07T17:12:33.707Z,29.10
2018-05-07T17:15:01.958Z,28.60
2018-05-07T17:17:30.218Z,29.10
2018-05-07T17:19:58.480Z,29.40
2018-05-07T17:22:26.725Z,28.80
2018-05-07T17:24:55.571Z,28.50
2018-05-07T17:27:25.085Z,28.50
2018-05-07T17:29:53.339Z,28.50
2018-05-07T17:32:21.589Z,28.10
2018-05-07T17:34:50.617Z,26.00
2018-05-07T17:37:18.873Z,25.90
2018-05-07T17:39:47.852Z,24.90
2018-05-07T17:42:16.862Z,24.00
2018-05-07T17:45:04.619Z,23.90
2018-05-07T17:47:50.637Z,23.90
2018-05-07T17:50:18.900Z,23.60
2018-05-07T17:52:47.151Z,23.40
2018-05-07T17:55:15.406Z,23.30
2018-05-07T17:57:44.405Z,23.10
2018-05-07T18:00:12.667Z,23.10
2018-05-07T18:02:41.689Z,22.80
2018-05-07T18:05:09.939Z,22.80
2018-05-07T18:07:38.956Z,22.70
2018-05-07T18:10:09.416Z,22.60
2018-05-07T18:12:37.662Z,22.60
2018-05-07T18:15:05.920Z,22.50
2018-05-07T18:17:34.172Z,22.30
2018-05-07T18:20:03.194Z,22.10
2018-05-07T18:22:32.129Z,22.00
2018-05-07T18:25:00.390Z,21.90
2018-05-07T18:27:28.642Z,21.80
2018-05-07T18:29:59.118Z,21.70
2018-05-07T18:32:28.208Z,21.50
2018-05-07T18:34:57.145Z,21.30
2018-05-07T18:37:26.626Z,21.30
2018-05-07T18:39:56.662Z,21.20
2018-05-07T18:42:25.589Z,21.10
2018-05-07T18:44:53.841Z,21.10
2018-05-07T18:47:22.108Z,21.00
2018-05-07T18:49:50.370Z,20.90
2018-05-07T18:52:19.377Z,20.80
2018-05-07T18:54:47.694Z,20.80
2018-05-07T18:57:15.951Z,20.80
2018-05-07T18:59:45.234Z,20.70
2018-05-07T19:02:14.946Z,20.70
2018-05-07T19:04:43.894Z,20.70
2018-05-07T19:07:12.329Z,20.70
2018-05-07T19:09:42.321Z,20.70
2018-05-07T19:12:11.334Z,20.70
2018-05-07T19:14:39.581Z,20.60
2018-05-07T19:17:09.321Z,20.50
2018-05-07T19:19:37.578Z,20.50
2018-05-07T19:22:05.825Z,20.40
2018-05-07T19:24:34.845Z,20.20
2018-05-07T19:27:03.105Z,20.20
2018-05-07T19:29:32.354Z,20.00
2018-05-07T19:32:01.565Z,20.00
2018-05-07T19:34:29.818Z,19.90
2018-05-07T19:36:58.074Z,19.80
2018-05-07T19:39:26.327Z,19.80
2018-05-07T19:41:55.342Z,19.60
2018-05-07T19:44:23.593Z,19.60
2018-05-07T19:46:51.901Z,19.60
2018-05-07T19:49:20.173Z,19.60
2018-05-07T19:51:49.178Z,19.40
2018-05-07T19:54:17.424Z,19.30
2018-05-07T19:56:46.472Z,19.20
2018-05-07T19:59:14.711Z,19.20
2018-05-07T20:01:42.969Z,19.10
2018-05-07T20:04:11.995Z,19.00
2018-05-07T20:06:40.253Z,19.00
2018-05-07T20:09:09.078Z,18.90
2018-05-07T20:11:37.333Z,18.90
2018-05-07T20:14:05.581Z,18.90
2018-05-07T20:16:34.607Z,18.70
2018-05-07T20:19:02.859Z,18.70
2018-05-07T20:21:31.125Z,18.70
2018-05-07T20:24:00.135Z,18.70
2018-05-07T20:26:28.393Z,18.70
2018-05-07T20:28:56.640Z,18.60
2018-05-07T20:31:24.896Z,18.50
2018-05-07T20:33:53.836Z,18.50
2018-05-07T20:36:22.857Z,18.40
2018-05-07T20:38:51.113Z,18.40
2018-05-07T20:41:19.929Z,18.30
2018-05-07T20:43:48.312Z,18.30
2018-05-07T20:46:16.567Z,18.30
2018-05-07T20:48:44.812Z,18.20
2018-05-07T20:51:13.837Z,18.10
2018-05-07T20:53:42.093Z,18.10
2018-05-07T20:56:11.105Z,18.00
2018-05-07T20:58:39.353Z,18.00
2018-05-07T21:01:08.382Z,17.90
2018-05-07T21:03:36.635Z,17.90
2018-05-07T21:06:04.879Z,17.90
2018-05-07T21:08:33.139Z,17.80
2018-05-07T21:11:01.397Z,17.70
2018-05-07T21:13:29.662Z,17.70
2018-05-07T21:15:57.917Z,17.60
2018-05-07T21:18:26.183Z,17.50
2018-05-07T21:20:56.329Z,17.40
2018-05-07T21:23:24.583Z,17.40
2018-05-07T21:25:52.841Z,17.30
2018-05-07T21:28:21.863Z,17.20
2018-05-07T21:30:50.112Z,17.10
2018-05-07T21:33:19.693Z,17.00
2018-05-07T21:35:47.985Z,17.00
2018-05-07T21:38:16.817Z,16.90
2018-05-07T21:40:45.576Z,16.80
2018-05-07T21:43:14.580Z,16.70
2018-05-07T21:45:42.828Z,16.60
2018-05-07T21:48:11.854Z,16.20
2018-05-07T21:50:40.111Z,16.20
2018-05-07T21:53:09.859Z,16.00
2018-05-07T21:55:38.110Z,16.00
2018-05-07T21:58:06.377Z,16.00
2018-05-07T22:00:36.223Z,16.10
2018-05-07T22:03:05.467Z,16.00
2018-05-07T22:05:34.761Z,16.20
2018-05-07T22:08:04.232Z,16.30
2018-05-07T22:10:32.471Z,16.30
2018-05-07T22:13:01.653Z,16.40
2018-05-07T22:15:33.667Z,16.40
2018-05-07T22:18:02.853Z,16.30
2018-05-07T22:20:31.855Z,16.30
2018-05-07T22:23:00.391Z,16.20
2018-05-07T22:25:29.412Z,16.20
2018-05-07T22:27:57.659Z,16.20
2018-05-07T22:30:26.687Z,16.10
2018-05-07T22:32:55.566Z,16.10
2018-05-07T22:35:24.598Z,16.10
2018-05-07T22:37:52.836Z,16.00
2018-05-07T22:40:21.099Z,16.00
2018-05-07T22:42:49.585Z,15.90
2018-05-07T22:45:19.051Z,15.80
2018-05-07T22:47:50.827Z,15.70
2018-05-07T22:50:19.852Z,15.60
2018-05-07T22:52:48.114Z,15.60
2018-05-07T22:55:21.951Z,15.60
2018-05-07T22:57:50.211Z,15.60
2018-05-07T23:00:19.670Z,15.60
2018-05-07T23:02:48.626Z,15.50
2018-05-07T23:05:17.425Z,15.50
2018-05-07T23:07:45.674Z,15.50
2018-05-07T23:10:13.933Z,15.50
2018-05-07T23:12:42.190Z,15.50
2018-05-07T23:15:12.098Z,15.50
2018-05-07T23:17:41.125Z,15.60
2018-05-07T23:20:09.374Z,15.50
2018-05-07T23:22:38.406Z,15.60
2018-05-07T23:25:06.652Z,15.60
2018-05-07T23:27:34.913Z,15.60
2018-05-07T23:30:03.936Z,15.40
2018-05-07T23:32:32.196Z,15.40
2018-05-07T23:35:00.448Z,15.40
2018-05-07T23:37:29.352Z,15.40
2018-05-07T23:39:58.373Z,15.40
2018-05-07T23:42:26.638Z,15.40
2018-05-07T23:44:54.893Z,15.40
2018-05-07T23:47:24.149Z,15.30
2018-05-07T23:49:52.403Z,15.30
2018-05-07T23:52:20.661Z,15.30
2018-05-07T23:54:48.914Z,15.40
2018-05-07T23:57:18.964Z,15.30
2018-05-07T23:59:47.785Z,15.30
